sensor_id;sensor_type;location;lat;lon;timestamp;P1;durP1;ratioP1;P2;durP2;ratioP2
46036;SDS011;31769;49.304;8.428;2024-01-27T00:02:13;12.15;;;3.03;;
46036;SDS011;31769;49.304;8.428;2024-01-27T00:05:14;12.75;;;3.00;;
46036;SDS011;31769;49.304;8.428;2024-01-27T00:08:15;5.72;;;3.35;;
46036;SDS011;31769;49.304;8.428;2024-01-27T00:11:16;8.27;;;3.42;;
46036;SDS011;31769;49.304;8.428;2024-01-27T00:14:16;11.32;;;2.92;;
46036;SDS011;31769;49.304;8.428;2024-01-27T00:17:17;11.20;;;3.47;;
46036;SDS011;31769;49.304;8.428;2024-01-27T00:20:24;8.43;;;3.10;;
46036;SDS011;31769;49.304;8.428;2024-01-27T00:23:24;5.40;;;2.38;;
46036;SDS011;31769;49.304;8.428;2024-01-27T00:26:25;6.28;;;2.40;;
46036;SDS011;31769;49.304;8.428;2024-01-27T00:29:26;8.23;;;3.20;;
46036;SDS011;31769;49.304;8.428;2024-01-27T00:32:26;10.50;;;3.33;;
46036;SDS011;31769;49.304;8.428;2024-01-27T00:35:27;10.00;;;3.35;;
46036;SDS011;31769;49.304;8.428;2024-01-27T00:38:28;13.40;;;3.72;;
46036;SDS011;31769;49.304;8.428;2024-01-27T00:41:29;9.43;;;3.28;;
46036;SDS011;31769;49.304;8.428;2024-01-27T00:44:30;9.07;;;3.42;;
46036;SDS011;31769;49.304;8.428;2024-01-27T00:47:31;10.82;;;3.53;;
46036;SDS011;31769;49.304;8.428;2024-01-27T00:50:31;12.00;;;3.65;;
46036;SDS011;31769;49.304;8.428;2024-01-27T00:53:32;10.52;;;3.08;;
46036;SDS011;31769;49.304;8.428;2024-01-27T00:56:33;12.68;;;3.80;;
46036;SDS011;31769;49.304;8.428;2024-01-27T00:59:34;8.63;;;3.15;;
46036;SDS011;31769;49.304;8.428;2024-01-27T01:02:36;11.27;;;3.22;;
46036;SDS011;31769;49.304;8.428;2024-01-27T01:05:37;9.57;;;2.85;;
46036;SDS011;31769;49.304;8.428;2024-01-27T01:08:37;9.30;;;2.67;;
46036;SDS011;31769;49.304;8.428;2024-01-27T01:11:38;9.35;;;3.55;;
46036;SDS011;31769;49.304;8.428;2024-01-27T01:14:39;9.25;;;3.35;;
46036;SDS011;31769;49.304;8.428;2024-01-27T01:17:40;11.30;;;3.88;;
46036;SDS011;31769;49.304;8.428;2024-01-27T01:20:41;10.60;;;4.07;;
46036;SDS011;31769;49.304;8.428;2024-01-27T01:23:42;11.02;;;4.00;;
46036;SDS011;31769;49.304;8.428;2024-01-27T01:26:43;13.77;;;3.45;;
46036;SDS011;31769;49.304;8.428;2024-01-27T01:29:43;10.98;;;3.63;;
46036;SDS011;31769;49.304;8.428;2024-01-27T01:32:44;9.50;;;3.67;;
46036;SDS011;31769;49.304;8.428;2024-01-27T01:35:45;10.15;;;4.05;;
46036;SDS011;31769;49.304;8.428;2024-01-27T01:38:46;9.10;;;3.53;;
46036;SDS011;31769;49.304;8.428;2024-01-27T01:41:46;14.63;;;3.72;;
46036;SDS011;31769;49.304;8.428;2024-01-27T01:44:47;12.48;;;3.70;;
46036;SDS011;31769;49.304;8.428;2024-01-27T01:47:48;10.15;;;3.70;;
46036;SDS011;31769;49.304;8.428;2024-01-27T01:50:49;10.13;;;3.85;;
46036;SDS011;31769;49.304;8.428;2024-01-27T01:53:50;12.55;;;2.95;;
46036;SDS011;31769;49.304;8.428;2024-01-27T01:56:52;14.93;;;2.80;;
46036;SDS011;31769;49.304;8.428;2024-01-27T01:59:55;9.07;;;2.40;;
46036;SDS011;31769;49.304;8.428;2024-01-27T02:02:55;7.85;;;2.95;;
46036;SDS011;31769;49.304;8.428;2024-01-27T02:05:56;9.13;;;2.63;;
46036;SDS011;31769;49.304;8.428;2024-01-27T02:08:57;15.55;;;3.47;;
46036;SDS011;31769;49.304;8.428;2024-01-27T02:11:58;11.95;;;3.00;;
46036;SDS011;31769;49.304;8.428;2024-01-27T02:14:59;13.55;;;2.95;;
46036;SDS011;31769;49.304;8.428;2024-01-27T02:17:59;14.45;;;3.60;;
46036;SDS011;31769;49.304;8.428;2024-01-27T02:21:00;11.68;;;2.92;;
46036;SDS011;31769;49.304;8.428;2024-01-27T02:24:01;13.20;;;3.80;;
46036;SDS011;31769;49.304;8.428;2024-01-27T02:27:01;13.25;;;3.50;;
46036;SDS011;31769;49.304;8.428;2024-01-27T02:30:02;15.10;;;3.72;;
46036;SDS011;31769;49.304;8.428;2024-01-27T02:33:04;9.55;;;3.40;;
46036;SDS011;31769;49.304;8.428;2024-01-27T02:36:05;9.73;;;3.30;;
46036;SDS011;31769;49.304;8.428;2024-01-27T02:39:06;11.43;;;3.60;;
46036;SDS011;31769;49.304;8.428;2024-01-27T02:42:07;7.90;;;2.90;;
46036;SDS011;31769;49.304;8.428;2024-01-27T02:45:07;4.78;;;2.80;;
46036;SDS011;31769;49.304;8.428;2024-01-27T02:48:08;10.93;;;3.22;;
46036;SDS011;31769;49.304;8.428;2024-01-27T02:51:09;12.70;;;2.88;;
46036;SDS011;31769;49.304;8.428;2024-01-27T02:54:10;12.05;;;3.40;;
46036;SDS011;31769;49.304;8.428;2024-01-27T02:57:11;11.25;;;3.70;;
46036;SDS011;31769;49.304;8.428;2024-01-27T03:00:13;11.70;;;3.67;;
46036;SDS011;31769;49.304;8.428;2024-01-27T03:03:14;8.25;;;2.78;;
46036;SDS011;31769;49.304;8.428;2024-01-27T03:06:15;12.32;;;3.17;;
46036;SDS011;31769;49.304;8.428;2024-01-27T03:09:16;10.43;;;3.10;;
46036;SDS011;31769;49.304;8.428;2024-01-27T03:12:16;10.98;;;3.40;;
46036;SDS011;31769;49.304;8.428;2024-01-27T03:15:18;8.18;;;3.10;;
46036;SDS011;31769;49.304;8.428;2024-01-27T03:18:19;9.35;;;2.92;;
46036;SDS011;31769;49.304;8.428;2024-01-27T03:21:20;10.40;;;3.58;;
46036;SDS011;31769;49.304;8.428;2024-01-27T03:24:20;15.80;;;3.40;;
46036;SDS011;31769;49.304;8.428;2024-01-27T03:27:21;11.57;;;3.70;;
46036;SDS011;31769;49.304;8.428;2024-01-27T03:30:22;14.52;;;4.90;;
46036;SDS011;31769;49.304;8.428;2024-01-27T03:33:23;10.18;;;3.92;;
46036;SDS011;31769;49.304;8.428;2024-01-27T03:36:23;11.70;;;4.05;;
46036;SDS011;31769;49.304;8.428;2024-01-27T03:39:24;13.70;;;4.15;;
46036;SDS011;31769;49.304;8.428;2024-01-27T03:42:25;8.57;;;3.85;;
46036;SDS011;31769;49.304;8.428;2024-01-27T03:45:26;11.57;;;2.95;;
46036;SDS011;31769;49.304;8.428;2024-01-27T03:48:27;11.98;;;4.57;;
46036;SDS011;31769;49.304;8.428;2024-01-27T03:51:27;12.38;;;4.30;;
46036;SDS011;31769;49.304;8.428;2024-01-27T03:54:29;14.77;;;4.53;;
46036;SDS011;31769;49.304;8.428;2024-01-27T03:57:29;10.00;;;4.13;;
46036;SDS011;31769;49.304;8.428;2024-01-27T04:00:30;16.63;;;4.75;;
46036;SDS011;31769;49.304;8.428;2024-01-27T04:03:32;11.50;;;3.70;;
46036;SDS011;31769;49.304;8.428;2024-01-27T04:06:37;11.63;;;5.22;;
46036;SDS011;31769;49.304;8.428;2024-01-27T04:09:38;12.93;;;4.03;;
46036;SDS011;31769;49.304;8.428;2024-01-27T04:12:39;10.80;;;4.45;;
46036;SDS011;31769;49.304;8.428;2024-01-27T04:15:40;10.25;;;4.10;;
46036;SDS011;31769;49.304;8.428;2024-01-27T04:18:41;15.00;;;4.53;;
46036;SDS011;31769;49.304;8.428;2024-01-27T04:21:42;17.35;;;5.70;;
46036;SDS011;31769;49.304;8.428;2024-01-27T04:24:43;19.77;;;5.15;;
46036;SDS011;31769;49.304;8.428;2024-01-27T04:27:43;11.23;;;4.40;;
46036;SDS011;31769;49.304;8.428;2024-01-27T04:30:44;12.88;;;4.70;;
46036;SDS011;31769;49.304;8.428;2024-01-27T04:33:45;11.65;;;4.50;;
46036;SDS011;31769;49.304;8.428;2024-01-27T04:36:46;7.85;;;3.67;;
46036;SDS011;31769;49.304;8.428;2024-01-27T04:39:46;15.27;;;5.22;;
46036;SDS011;31769;49.304;8.428;2024-01-27T04:42:47;16.95;;;5.13;;
46036;SDS011;31769;49.304;8.428;2024-01-27T04:45:48;16.02;;;4.72;;
46036;SDS011;31769;49.304;8.428;2024-01-27T04:48:49;11.18;;;4.32;;
46036;SDS011;31769;49.304;8.428;2024-01-27T04:51:50;9.23;;;4.28;;
46036;SDS011;31769;49.304;8.428;2024-01-27T04:54:51;12.05;;;4.60;;
46036;SDS011;31769;49.304;8.428;2024-01-27T04:57:52;9.13;;;4.25;;
46036;SDS011;31769;49.304;8.428;2024-01-27T05:00:53;12.85;;;4.93;;
46036;SDS011;31769;49.304;8.428;2024-01-27T05:03:54;15.48;;;4.28;;
46036;SDS011;31769;49.304;8.428;2024-01-27T05:06:55;12.05;;;4.40;;
46036;SDS011;31769;49.304;8.428;2024-01-27T05:09:55;10.15;;;3.65;;
46036;SDS011;31769;49.304;8.428;2024-01-27T05:12:56;12.63;;;3.97;;
46036;SDS011;31769;49.304;8.428;2024-01-27T05:15:57;8.65;;;3.85;;
46036;SDS011;31769;49.304;8.428;2024-01-27T05:18:58;8.70;;;4.28;;
46036;SDS011;31769;49.304;8.428;2024-01-27T05:21:58;7.85;;;3.75;;
46036;SDS011;31769;49.304;8.428;2024-01-27T05:24:59;12.55;;;4.38;;
46036;SDS011;31769;49.304;8.428;2024-01-27T05:28:00;10.57;;;4.93;;
46036;SDS011;31769;49.304;8.428;2024-01-27T05:31:01;10.30;;;3.75;;
46036;SDS011;31769;49.304;8.428;2024-01-27T05:34:02;9.25;;;4.20;;
46036;SDS011;31769;49.304;8.428;2024-01-27T05:37:02;9.35;;;4.50;;
46036;SDS011;31769;49.304;8.428;2024-01-27T05:40:03;8.95;;;5.55;;
46036;SDS011;31769;49.304;8.428;2024-01-27T05:43:06;17.45;;;6.85;;
46036;SDS011;31769;49.304;8.428;2024-01-27T05:46:08;8.05;;;5.40;;
46036;SDS011;31769;49.304;8.428;2024-01-27T05:49:09;8.85;;;5.35;;
46036;SDS011;31769;49.304;8.428;2024-01-27T05:52:10;12.35;;;6.47;;
46036;SDS011;31769;49.304;8.428;2024-01-27T05:55:11;10.52;;;5.97;;
46036;SDS011;31769;49.304;8.428;2024-01-27T05:58:13;15.10;;;6.60;;
46036;SDS011;31769;49.304;8.428;2024-01-27T06:01:13;13.38;;;7.63;;
46036;SDS011;31769;49.304;8.428;2024-01-27T06:04:14;17.25;;;7.25;;
46036;SDS011;31769;49.304;8.428;2024-01-27T06:07:15;11.27;;;7.20;;
46036;SDS011;31769;49.304;8.428;2024-01-27T06:10:16;17.52;;;7.18;;
46036;SDS011;31769;49.304;8.428;2024-01-27T06:13:18;17.58;;;7.78;;
46036;SDS011;31769;49.304;8.428;2024-01-27T06:16:19;14.63;;;8.60;;
46036;SDS011;31769;49.304;8.428;2024-01-27T06:19:20;13.80;;;8.15;;
46036;SDS011;31769;49.304;8.428;2024-01-27T06:22:20;12.68;;;8.45;;
46036;SDS011;31769;49.304;8.428;2024-01-27T06:25:21;16.20;;;9.02;;
46036;SDS011;31769;49.304;8.428;2024-01-27T06:28:22;18.48;;;8.20;;
46036;SDS011;31769;49.304;8.428;2024-01-27T06:31:23;10.80;;;7.70;;
46036;SDS011;31769;49.304;8.428;2024-01-27T06:34:23;14.60;;;7.70;;
46036;SDS011;31769;49.304;8.428;2024-01-27T06:37:24;15.57;;;7.47;;
46036;SDS011;31769;49.304;8.428;2024-01-27T06:40:25;14.45;;;8.50;;
46036;SDS011;31769;49.304;8.428;2024-01-27T06:43:26;20.40;;;8.57;;
46036;SDS011;31769;49.304;8.428;2024-01-27T06:46:26;18.45;;;8.77;;
46036;SDS011;31769;49.304;8.428;2024-01-27T06:49:27;19.83;;;9.07;;
46036;SDS011;31769;49.304;8.428;2024-01-27T06:52:28;14.73;;;7.88;;
46036;SDS011;31769;49.304;8.428;2024-01-27T06:55:29;21.70;;;9.20;;
46036;SDS011;31769;49.304;8.428;2024-01-27T06:58:29;19.73;;;8.43;;
46036;SDS011;31769;49.304;8.428;2024-01-27T07:01:30;20.45;;;8.48;;
46036;SDS011;31769;49.304;8.428;2024-01-27T07:04:31;19.52;;;9.65;;
46036;SDS011;31769;49.304;8.428;2024-01-27T07:07:32;18.48;;;8.07;;
46036;SDS011;31769;49.304;8.428;2024-01-27T07:10:32;15.35;;;7.68;;
46036;SDS011;31769;49.304;8.428;2024-01-27T07:13:34;16.30;;;8.35;;
46036;SDS011;31769;49.304;8.428;2024-01-27T07:16:35;20.92;;;7.57;;
46036;SDS011;31769;49.304;8.428;2024-01-27T07:19:35;20.67;;;8.23;;
46036;SDS011;31769;49.304;8.428;2024-01-27T07:22:36;19.23;;;7.97;;
46036;SDS011;31769;49.304;8.428;2024-01-27T07:25:37;17.35;;;7.55;;
46036;SDS011;31769;49.304;8.428;2024-01-27T07:28:38;14.93;;;5.93;;
46036;SDS011;31769;49.304;8.428;2024-01-27T07:31:39;16.23;;;7.80;;
46036;SDS011;31769;49.304;8.428;2024-01-27T07:34:43;14.63;;;8.02;;
46036;SDS011;31769;49.304;8.428;2024-01-27T07:37:44;19.02;;;6.72;;
46036;SDS011;31769;49.304;8.428;2024-01-27T07:40:45;18.75;;;6.93;;
46036;SDS011;31769;49.304;8.428;2024-01-27T07:43:46;19.02;;;7.30;;
46036;SDS011;31769;49.304;8.428;2024-01-27T07:46:47;26.95;;;13.52;;
46036;SDS011;31769;49.304;8.428;2024-01-27T07:49:47;18.13;;;7.40;;
46036;SDS011;31769;49.304;8.428;2024-01-27T07:52:49;14.30;;;7.10;;
46036;SDS011;31769;49.304;8.428;2024-01-27T07:55:50;16.48;;;7.93;;
46036;SDS011;31769;49.304;8.428;2024-01-27T07:58:51;14.80;;;8.63;;
46036;SDS011;31769;49.304;8.428;2024-01-27T08:01:52;12.77;;;7.32;;
46036;SDS011;31769;49.304;8.428;2024-01-27T08:04:52;17.75;;;7.82;;
46036;SDS011;31769;49.304;8.428;2024-01-27T08:07:53;17.52;;;7.30;;
46036;SDS011;31769;49.304;8.428;2024-01-27T08:10:54;12.98;;;6.63;;
46036;SDS011;31769;49.304;8.428;2024-01-27T08:13:55;14.57;;;7.53;;
46036;SDS011;31769;49.304;8.428;2024-01-27T08:16:56;13.43;;;7.72;;
46036;SDS011;31769;49.304;8.428;2024-01-27T08:19:57;13.57;;;7.97;;
46036;SDS011;31769;49.304;8.428;2024-01-27T08:22:58;15.80;;;10.23;;
46036;SDS011;31769;49.304;8.428;2024-01-27T08:25:58;19.38;;;10.88;;
46036;SDS011;31769;49.304;8.428;2024-01-27T08:28:59;18.13;;;9.88;;
46036;SDS011;31769;49.304;8.428;2024-01-27T08:32:00;18.58;;;10.70;;
46036;SDS011;31769;49.304;8.428;2024-01-27T08:35:01;17.20;;;10.70;;
46036;SDS011;31769;49.304;8.428;2024-01-27T08:38:02;18.02;;;10.05;;
46036;SDS011;31769;49.304;8.428;2024-01-27T08:41:04;17.55;;;11.02;;
46036;SDS011;31769;49.304;8.428;2024-01-27T08:44:04;18.15;;;11.13;;
46036;SDS011;31769;49.304;8.428;2024-01-27T08:47:05;20.13;;;11.80;;
46036;SDS011;31769;49.304;8.428;2024-01-27T08:50:06;16.80;;;11.85;;
46036;SDS011;31769;49.304;8.428;2024-01-27T08:53:08;19.23;;;10.98;;
46036;SDS011;31769;49.304;8.428;2024-01-27T08:56:09;19.95;;;12.30;;
46036;SDS011;31769;49.304;8.428;2024-01-27T08:59:10;18.38;;;11.30;;
46036;SDS011;31769;49.304;8.428;2024-01-27T09:02:10;15.63;;;11.70;;
46036;SDS011;31769;49.304;8.428;2024-01-27T09:05:11;22.42;;;12.85;;
46036;SDS011;31769;49.304;8.428;2024-01-27T09:08:12;20.10;;;11.93;;
46036;SDS011;31769;49.304;8.428;2024-01-27T09:11:13;16.85;;;10.43;;
46036;SDS011;31769;49.304;8.428;2024-01-27T09:14:14;20.17;;;10.75;;
46036;SDS011;31769;49.304;8.428;2024-01-27T09:17:14;17.90;;;11.43;;
46036;SDS011;31769;49.304;8.428;2024-01-27T09:20:15;18.58;;;10.85;;
46036;SDS011;31769;49.304;8.428;2024-01-27T09:23:16;16.92;;;11.30;;
46036;SDS011;31769;49.304;8.428;2024-01-27T09:26:17;17.70;;;10.88;;
46036;SDS011;31769;49.304;8.428;2024-01-27T09:29:18;15.95;;;10.50;;
46036;SDS011;31769;49.304;8.428;2024-01-27T09:32:20;15.90;;;10.77;;
46036;SDS011;31769;49.304;8.428;2024-01-27T09:35:21;20.20;;;10.50;;
46036;SDS011;31769;49.304;8.428;2024-01-27T09:38:21;18.33;;;10.45;;
46036;SDS011;31769;49.304;8.428;2024-01-27T09:41:23;31.90;;;19.05;;
46036;SDS011;31769;49.304;8.428;2024-01-27T09:44:24;21.60;;;11.85;;
46036;SDS011;31769;49.304;8.428;2024-01-27T09:47:27;19.80;;;10.35;;
46036;SDS011;31769;49.304;8.428;2024-01-27T09:50:28;16.30;;;10.18;;
46036;SDS011;31769;49.304;8.428;2024-01-27T09:53:29;17.67;;;10.18;;
46036;SDS011;31769;49.304;8.428;2024-01-27T09:56:29;17.90;;;10.70;;
46036;SDS011;31769;49.304;8.428;2024-01-27T09:59:32;20.30;;;11.48;;
46036;SDS011;31769;49.304;8.428;2024-01-27T10:02:33;18.00;;;11.00;;
46036;SDS011;31769;49.304;8.428;2024-01-27T10:05:34;15.63;;;9.05;;
46036;SDS011;31769;49.304;8.428;2024-01-27T10:08:36;16.88;;;8.90;;
46036;SDS011;31769;49.304;8.428;2024-01-27T10:11:37;15.18;;;9.68;;
46036;SDS011;31769;49.304;8.428;2024-01-27T10:14:42;15.98;;;10.50;;
46036;SDS011;31769;49.304;8.428;2024-01-27T10:17:45;16.23;;;9.85;;
46036;SDS011;31769;49.304;8.428;2024-01-27T10:20:45;15.98;;;7.95;;
46036;SDS011;31769;49.304;8.428;2024-01-27T10:23:47;15.43;;;9.00;;
46036;SDS011;31769;49.304;8.428;2024-01-27T10:26:48;15.93;;;8.27;;
46036;SDS011;31769;49.304;8.428;2024-01-27T10:29:53;15.55;;;8.25;;
46036;SDS011;31769;49.304;8.428;2024-01-27T10:32:55;15.85;;;7.72;;
46036;SDS011;31769;49.304;8.428;2024-01-27T10:35:59;16.83;;;7.93;;
46036;SDS011;31769;49.304;8.428;2024-01-27T10:39:00;12.43;;;6.90;;
46036;SDS011;31769;49.304;8.428;2024-01-27T10:42:01;15.30;;;7.72;;
46036;SDS011;31769;49.304;8.428;2024-01-27T10:45:04;15.07;;;7.90;;
46036;SDS011;31769;49.304;8.428;2024-01-27T10:48:06;15.20;;;7.20;;
46036;SDS011;31769;49.304;8.428;2024-01-27T10:51:08;14.43;;;7.68;;
46036;SDS011;31769;49.304;8.428;2024-01-27T10:54:10;15.77;;;7.68;;
46036;SDS011;31769;49.304;8.428;2024-01-27T10:57:15;16.83;;;7.18;;
46036;SDS011;31769;49.304;8.428;2024-01-27T11:00:18;17.20;;;7.38;;
46036;SDS011;31769;49.304;8.428;2024-01-27T11:03:19;14.25;;;6.78;;
46036;SDS011;31769;49.304;8.428;2024-01-27T11:06:22;15.65;;;6.93;;
46036;SDS011;31769;49.304;8.428;2024-01-27T11:09:23;30.77;;;8.38;;
46036;SDS011;31769;49.304;8.428;2024-01-27T11:12:25;16.33;;;8.27;;
46036;SDS011;31769;49.304;8.428;2024-01-27T11:15:26;14.90;;;8.85;;
46036;SDS011;31769;49.304;8.428;2024-01-27T11:18:27;27.13;;;15.38;;
46036;SDS011;31769;49.304;8.428;2024-01-27T11:21:29;16.10;;;7.55;;
46036;SDS011;31769;49.304;8.428;2024-01-27T11:24:30;16.63;;;6.55;;
46036;SDS011;31769;49.304;8.428;2024-01-27T11:27:31;14.85;;;6.28;;
46036;SDS011;31769;49.304;8.428;2024-01-27T11:30:32;16.10;;;5.82;;
46036;SDS011;31769;49.304;8.428;2024-01-27T11:33:42;15.32;;;5.13;;
46036;SDS011;31769;49.304;8.428;2024-01-27T11:36:43;11.98;;;3.90;;
46036;SDS011;31769;49.304;8.428;2024-01-27T11:39:44;11.55;;;4.65;;
46036;SDS011;31769;49.304;8.428;2024-01-27T11:45:57;15.27;;;4.57;;
46036;SDS011;31769;49.304;8.428;2024-01-27T11:48:58;15.80;;;4.20;;
46036;SDS011;31769;49.304;8.428;2024-01-27T11:51:59;11.57;;;4.38;;
46036;SDS011;31769;49.304;8.428;2024-01-27T11:55:00;13.35;;;5.00;;
46036;SDS011;31769;49.304;8.428;2024-01-27T11:58:01;13.43;;;4.88;;
46036;SDS011;31769;49.304;8.428;2024-01-27T12:01:02;10.07;;;5.07;;
46036;SDS011;31769;49.304;8.428;2024-01-27T12:04:03;13.85;;;4.70;;
46036;SDS011;31769;49.304;8.428;2024-01-27T12:07:05;11.48;;;5.13;;
46036;SDS011;31769;49.304;8.428;2024-01-27T12:10:07;8.77;;;3.58;;
46036;SDS011;31769;49.304;8.428;2024-01-27T12:13:08;11.57;;;3.72;;
46036;SDS011;31769;49.304;8.428;2024-01-27T12:16:09;9.73;;;3.30;;
46036;SDS011;31769;49.304;8.428;2024-01-27T12:19:10;13.38;;;3.13;;
46036;SDS011;31769;49.304;8.428;2024-01-27T12:22:21;8.25;;;3.22;;
46036;SDS011;31769;49.304;8.428;2024-01-27T12:25:22;8.55;;;2.58;;
46036;SDS011;31769;49.304;8.428;2024-01-27T12:28:23;7.07;;;2.42;;
46036;SDS011;31769;49.304;8.428;2024-01-27T12:31:24;6.38;;;2.63;;
46036;SDS011;31769;49.304;8.428;2024-01-27T12:34:26;9.48;;;2.75;;
46036;SDS011;31769;49.304;8.428;2024-01-27T12:37:27;6.50;;;2.13;;
46036;SDS011;31769;49.304;8.428;2024-01-27T12:40:28;7.75;;;1.77;;
46036;SDS011;31769;49.304;8.428;2024-01-27T12:43:29;5.75;;;1.40;;
46036;SDS011;31769;49.304;8.428;2024-01-27T12:46:29;6.38;;;1.35;;
46036;SDS011;31769;49.304;8.428;2024-01-27T12:49:31;6.97;;;1.75;;
46036;SDS011;31769;49.304;8.428;2024-01-27T12:52:32;7.82;;;1.77;;
46036;SDS011;31769;49.304;8.428;2024-01-27T12:55:33;7.93;;;1.40;;
46036;SDS011;31769;49.304;8.428;2024-01-27T12:58:34;11.30;;;5.15;;
46036;SDS011;31769;49.304;8.428;2024-01-27T13:01:35;6.55;;;2.15;;
46036;SDS011;31769;49.304;8.428;2024-01-27T13:04:36;7.28;;;1.30;;
46036;SDS011;31769;49.304;8.428;2024-01-27T13:07:37;8.90;;;1.58;;
46036;SDS011;31769;49.304;8.428;2024-01-27T13:10:38;6.03;;;1.55;;
46036;SDS011;31769;49.304;8.428;2024-01-27T13:13:40;5.72;;;1.42;;
46036;SDS011;31769;49.304;8.428;2024-01-27T13:16:41;7.57;;;1.98;;
46036;SDS011;31769;49.304;8.428;2024-01-27T13:19:42;4.63;;;1.42;;
46036;SDS011;31769;49.304;8.428;2024-01-27T13:22:43;5.43;;;1.40;;
46036;SDS011;31769;49.304;8.428;2024-01-27T13:25:45;6.30;;;1.35;;
46036;SDS011;31769;49.304;8.428;2024-01-27T13:28:46;5.15;;;1.70;;
46036;SDS011;31769;49.304;8.428;2024-01-27T13:31:48;6.38;;;1.50;;
46036;SDS011;31769;49.304;8.428;2024-01-27T13:34:49;6.18;;;1.80;;
46036;SDS011;31769;49.304;8.428;2024-01-27T13:37:50;5.20;;;1.50;;
46036;SDS011;31769;49.304;8.428;2024-01-27T13:40:50;3.67;;;1.50;;
46036;SDS011;31769;49.304;8.428;2024-01-27T13:43:51;4.53;;;1.50;;
46036;SDS011;31769;49.304;8.428;2024-01-27T13:46:52;5.53;;;2.05;;
46036;SDS011;31769;49.304;8.428;2024-01-27T13:49:53;6.05;;;1.20;;
46036;SDS011;31769;49.304;8.428;2024-01-27T13:52:54;5.13;;;1.40;;
46036;SDS011;31769;49.304;8.428;2024-01-27T13:55:55;6.97;;;1.33;;
46036;SDS011;31769;49.304;8.428;2024-01-27T13:58:56;4.80;;;1.30;;
46036;SDS011;31769;49.304;8.428;2024-01-27T14:01:56;6.03;;;1.27;;
46036;SDS011;31769;49.304;8.428;2024-01-27T14:04:57;8.75;;;1.95;;
46036;SDS011;31769;49.304;8.428;2024-01-27T14:07:58;7.63;;;1.35;;
46036;SDS011;31769;49.304;8.428;2024-01-27T14:10:59;30.65;;;2.92;;
46036;SDS011;31769;49.304;8.428;2024-01-27T14:14:00;6.47;;;1.70;;
46036;SDS011;31769;49.304;8.428;2024-01-27T14:17:00;6.90;;;1.80;;
46036;SDS011;31769;49.304;8.428;2024-01-27T14:20:02;6.13;;;2.33;;
46036;SDS011;31769;49.304;8.428;2024-01-27T14:23:06;5.15;;;1.73;;
46036;SDS011;31769;49.304;8.428;2024-01-27T14:26:07;7.22;;;1.75;;
46036;SDS011;31769;49.304;8.428;2024-01-27T14:29:14;7.82;;;1.65;;
46036;SDS011;31769;49.304;8.428;2024-01-27T14:32:17;8.52;;;1.50;;
46036;SDS011;31769;49.304;8.428;2024-01-27T14:35:17;4.85;;;1.20;;
46036;SDS011;31769;49.304;8.428;2024-01-27T14:38:18;6.00;;;1.55;;
46036;SDS011;31769;49.304;8.428;2024-01-27T14:41:20;9.32;;;3.50;;
46036;SDS011;31769;49.304;8.428;2024-01-27T14:44:21;6.25;;;3.38;;
46036;SDS011;31769;49.304;8.428;2024-01-27T14:47:22;6.10;;;1.70;;
46036;SDS011;31769;49.304;8.428;2024-01-27T14:50:23;7.82;;;1.42;;
46036;SDS011;31769;49.304;8.428;2024-01-27T14:53:25;6.57;;;1.20;;
46036;SDS011;31769;49.304;8.428;2024-01-27T14:56:26;4.50;;;1.60;;
46036;SDS011;31769;49.304;8.428;2024-01-27T14:59:27;5.68;;;1.77;;
46036;SDS011;31769;49.304;8.428;2024-01-27T15:02:29;6.32;;;1.88;;
46036;SDS011;31769;49.304;8.428;2024-01-27T15:05:29;5.55;;;1.63;;
46036;SDS011;31769;49.304;8.428;2024-01-27T15:08:31;5.72;;;1.20;;
46036;SDS011;31769;49.304;8.428;2024-01-27T15:11:31;6.00;;;2.20;;
46036;SDS011;31769;49.304;8.428;2024-01-27T15:14:32;6.32;;;1.52;;
46036;SDS011;31769;49.304;8.428;2024-01-27T15:17:33;6.32;;;1.17;;
46036;SDS011;31769;49.304;8.428;2024-01-27T15:20:36;7.55;;;1.30;;
46036;SDS011;31769;49.304;8.428;2024-01-27T15:23:37;8.95;;;1.70;;
46036;SDS011;31769;49.304;8.428;2024-01-27T15:26:38;4.53;;;1.70;;
46036;SDS011;31769;49.304;8.428;2024-01-27T15:29:39;5.10;;;1.40;;
46036;SDS011;31769;49.304;8.428;2024-01-27T15:32:40;4.45;;;1.83;;
46036;SDS011;31769;49.304;8.428;2024-01-27T15:35:40;5.18;;;2.03;;
46036;SDS011;31769;49.304;8.428;2024-01-27T15:38:42;5.88;;;1.88;;
46036;SDS011;31769;49.304;8.428;2024-01-27T15:41:42;9.63;;;3.83;;
46036;SDS011;31769;49.304;8.428;2024-01-27T15:44:43;7.03;;;2.70;;
46036;SDS011;31769;49.304;8.428;2024-01-27T15:47:44;6.95;;;2.45;;
46036;SDS011;31769;49.304;8.428;2024-01-27T15:50:45;9.90;;;3.05;;
46036;SDS011;31769;49.304;8.428;2024-01-27T15:53:47;5.68;;;2.60;;
46036;SDS011;31769;49.304;8.428;2024-01-27T15:56:48;10.27;;;3.67;;
46036;SDS011;31769;49.304;8.428;2024-01-27T15:59:49;10.13;;;5.05;;
46036;SDS011;31769;49.304;8.428;2024-01-27T16:02:50;11.80;;;6.22;;
46036;SDS011;31769;49.304;8.428;2024-01-27T16:05:50;10.57;;;4.63;;
46036;SDS011;31769;49.304;8.428;2024-01-27T16:08:51;11.73;;;5.05;;
46036;SDS011;31769;49.304;8.428;2024-01-27T16:11:52;17.67;;;7.15;;
46036;SDS011;31769;49.304;8.428;2024-01-27T16:14:54;14.50;;;6.57;;
46036;SDS011;31769;49.304;8.428;2024-01-27T16:17:55;7.97;;;4.40;;
46036;SDS011;31769;49.304;8.428;2024-01-27T16:20:56;11.07;;;5.50;;
46036;SDS011;31769;49.304;8.428;2024-01-27T16:23:56;11.77;;;4.25;;
46036;SDS011;31769;49.304;8.428;2024-01-27T16:26:57;20.55;;;10.55;;
46036;SDS011;31769;49.304;8.428;2024-01-27T16:29:58;22.40;;;11.48;;
46036;SDS011;31769;49.304;8.428;2024-01-27T16:33:00;21.30;;;9.98;;
46036;SDS011;31769;49.304;8.428;2024-01-27T16:36:00;17.25;;;7.07;;
46036;SDS011;31769;49.304;8.428;2024-01-27T16:39:01;11.30;;;4.38;;
46036;SDS011;31769;49.304;8.428;2024-01-27T16:42:03;12.32;;;4.72;;
46036;SDS011;31769;49.304;8.428;2024-01-27T16:45:04;11.02;;;4.07;;
46036;SDS011;31769;49.304;8.428;2024-01-27T16:48:09;9.52;;;3.55;;
46036;SDS011;31769;49.304;8.428;2024-01-27T16:51:10;8.77;;;3.60;;
46036;SDS011;31769;49.304;8.428;2024-01-27T16:54:11;10.13;;;3.63;;
46036;SDS011;31769;49.304;8.428;2024-01-27T16:57:14;15.45;;;3.88;;
46036;SDS011;31769;49.304;8.428;2024-01-27T17:00:15;10.70;;;4.28;;
46036;SDS011;31769;49.304;8.428;2024-01-27T17:03:16;12.60;;;4.60;;
46036;SDS011;31769;49.304;8.428;2024-01-27T17:06:17;15.88;;;4.32;;
46036;SDS011;31769;49.304;8.428;2024-01-27T17:09:18;17.15;;;5.20;;
46036;SDS011;31769;49.304;8.428;2024-01-27T17:12:18;17.38;;;5.50;;
46036;SDS011;31769;49.304;8.428;2024-01-27T17:15:19;12.70;;;5.25;;
46036;SDS011;31769;49.304;8.428;2024-01-27T17:18:20;14.60;;;4.70;;
46036;SDS011;31769;49.304;8.428;2024-01-27T17:21:21;15.50;;;5.72;;
46036;SDS011;31769;49.304;8.428;2024-01-27T17:24:22;18.00;;;5.97;;
46036;SDS011;31769;49.304;8.428;2024-01-27T17:27:23;14.40;;;5.28;;
46036;SDS011;31769;49.304;8.428;2024-01-27T17:30:23;16.20;;;5.70;;
46036;SDS011;31769;49.304;8.428;2024-01-27T17:33:24;21.55;;;6.65;;
46036;SDS011;31769;49.304;8.428;2024-01-27T17:36:27;25.00;;;7.85;;
46036;SDS011;31769;49.304;8.428;2024-01-27T17:39:28;25.02;;;10.65;;
46036;SDS011;31769;49.304;8.428;2024-01-27T17:42:28;42.35;;;17.92;;
46036;SDS011;31769;49.304;8.428;2024-01-27T17:45:29;51.08;;;19.77;;
46036;SDS011;31769;49.304;8.428;2024-01-27T17:48:30;34.53;;;15.38;;
46036;SDS011;31769;49.304;8.428;2024-01-27T17:51:31;43.58;;;17.95;;
46036;SDS011;31769;49.304;8.428;2024-01-27T17:54:32;24.95;;;10.77;;
46036;SDS011;31769;49.304;8.428;2024-01-27T17:57:33;28.30;;;11.55;;
46036;SDS011;31769;49.304;8.428;2024-01-27T18:00:33;42.63;;;15.75;;